createdAt,value
2022-08-14T00:01:54.471Z,99.10
2022-08-14T00:04:36.098Z,99.30
2022-08-14T00:07:13.922Z,99.50
2022-08-14T00:09:56.182Z,99.50
2022-08-14T00:12:33.889Z,99.80
2022-08-14T00:15:29.953Z,99.90
2022-08-14T00:18:14.555Z,99.90
2022-08-14T00:20:58.504Z,99.90
2022-08-14T00:23:26.387Z,99.90
2022-08-14T00:26:05.567Z,99.90
2022-08-14T00:28:36.646Z,99.90
2022-08-14T00:31:08.195Z,99.90
2022-08-14T00:33:50.902Z,99.90
2022-08-14T00:36:36.909Z,99.90
2022-08-14T00:39:15.019Z,99.90
2022-08-14T00:41:47.251Z,99.90
2022-08-14T00:44:14.741Z,99.90
2022-08-14T00:46:49.408Z,99.90
2022-08-14T00:49:17.870Z,99.90
2022-08-14T00:51:48.242Z,99.90
2022-08-14T00:54:21.946Z,99.90
2022-08-14T00:56:54.891Z,99.90
2022-08-14T00:59:28.688Z,99.90
2022-08-14T01:02:00.137Z,99.90
2022-08-14T01:04:51.770Z,99.90
2022-08-14T01:07:21.707Z,99.90
2022-08-14T01:09:56.142Z,99.90
2022-08-14T01:12:30.076Z,99.90
2022-08-14T01:15:02.631Z,99.90
2022-08-14T01:17:51.906Z,99.90
2022-08-14T01:20:40.911Z,99.90
2022-08-14T01:23:16.561Z,99.90
2022-08-14T01:25:49.031Z,99.90
2022-08-14T01:28:47.018Z,99.90
2022-08-14T01:31:16.061Z,99.90
2022-08-14T01:35:16.509Z,99.90
2022-08-14T01:36:39.339Z,99.90
2022-08-14T01:39:16.688Z,99.90
2022-08-14T01:41:56.220Z,99.90
2022-08-14T01:44:33.448Z,99.90
2022-08-14T01:47:22.147Z,99.90
2022-08-14T01:49:59.700Z,99.90
2022-08-14T01:52:58.043Z,99.90
2022-08-14T01:55:17.742Z,99.90
2022-08-14T01:57:49.605Z,99.90
2022-08-14T02:00:35.912Z,99.90
2022-08-14T02:03:06.113Z,99.90
2022-08-14T02:05:38.075Z,99.90
2022-08-14T02:08:09.608Z,99.90
2022-08-14T02:10:46.626Z,99.90
2022-08-14T02:13:18.886Z,99.90
2022-08-14T02:15:48.746Z,99.90
2022-08-14T02:18:18.206Z,99.90
2022-08-14T02:20:45.885Z,99.90
2022-08-14T02:23:14.363Z,99.90
2022-08-14T02:25:41.339Z,99.90
2022-08-14T02:28:24.968Z,99.90
2022-08-14T02:30:55.263Z,99.90
2022-08-14T02:33:23.153Z,99.90
2022-08-14T02:35:53.397Z,99.90
2022-08-14T02:38:27.089Z,99.90
2022-08-14T02:41:00.543Z,99.90
2022-08-14T02:43:37.410Z,99.90
2022-08-14T02:46:20.616Z,99.90
2022-08-14T02:49:02.467Z,99.90
2022-08-14T02:51:35.023Z,99.90
2022-08-14T02:54:07.271Z,99.90
2022-08-14T02:57:16.417Z,99.90
2022-08-14T02:59:33.698Z,99.90
2022-08-14T03:02:03.020Z,99.90
2022-08-14T03:04:30.768Z,99.90
2022-08-14T03:07:06.609Z,99.90
2022-08-14T03:09:41.842Z,99.90
2022-08-14T03:12:30.899Z,99.90
2022-08-14T03:15:14.445Z,99.90
2022-08-14T03:17:56.470Z,99.90
2022-08-14T03:20:30.062Z,99.90
2022-08-14T03:22:59.402Z,99.90
2022-08-14T03:25:27.236Z,99.90
2022-08-14T03:27:58.323Z,99.90
2022-08-14T03:30:39.657Z,99.90
2022-08-14T03:33:11.631Z,99.90
2022-08-14T03:36:00.357Z,99.90
2022-08-14T03:39:14.763Z,99.90
2022-08-14T03:41:26.458Z,99.90
2022-08-14T03:45:30.740Z,99.90
2022-08-14T03:46:54.562Z,99.90
2022-08-14T03:49:28.324Z,99.90
2022-08-14T03:51:57.550Z,99.90
2022-08-14T03:54:25.972Z,99.90
2022-08-14T03:56:54.424Z,99.90
2022-08-14T03:59:21.901Z,99.90
2022-08-14T04:01:54.090Z,99.90
2022-08-14T04:04:32.076Z,99.90
2022-08-14T04:07:00.735Z,99.90
2022-08-14T04:09:29.152Z,99.90
2022-08-14T04:11:58.020Z,99.90
2022-08-14T04:14:26.526Z,99.90
2022-08-14T04:16:53.437Z,99.90
2022-08-14T04:19:23.726Z,99.90
2022-08-14T04:22:03.287Z,99.90
2022-08-14T04:24:38.382Z,99.90
2022-08-14T04:27:11.655Z,99.90
2022-08-14T04:29:42.420Z,99.90
2022-08-14T04:32:58.684Z,99.90
2022-08-14T04:34:57.925Z,99.90
2022-08-14T04:37:45.254Z,99.90
2022-08-14T04:40:33.046Z,99.90
2022-08-14T04:43:20.913Z,99.90
2022-08-14T04:45:51.376Z,99.90
2022-08-14T04:48:31.626Z,99.90
2022-08-14T04:51:15.726Z,99.90
2022-08-14T04:53:46.154Z,99.90
2022-08-14T04:56:34.280Z,99.90
2022-08-14T04:59:10.527Z,99.90
2022-08-14T05:01:47.845Z,99.90
2022-08-14T05:04:20.064Z,99.90
2022-08-14T05:06:49.856Z,99.90
2022-08-14T05:09:22.294Z,99.90
2022-08-14T05:11:50.372Z,99.90
2022-08-14T05:14:46.730Z,99.90
2022-08-14T05:17:12.005Z,99.90
2022-08-14T05:19:44.626Z,99.90
2022-08-14T05:22:28.707Z,99.90
2022-08-14T05:24:55.517Z,99.90
2022-08-14T05:27:23.958Z,99.90
2022-08-14T05:29:55.343Z,99.90
2022-08-14T05:32:27.254Z,99.90
2022-08-14T05:34:58.939Z,99.90
2022-08-14T05:37:30.002Z,99.90
2022-08-14T05:39:59.454Z,99.90
2022-08-14T05:42:32.021Z,99.90
2022-08-14T05:44:59.727Z,99.90
2022-08-14T05:47:28.809Z,99.90
2022-08-14T05:50:01.636Z,99.90
2022-08-14T05:52:39.243Z,99.90
2022-08-14T05:55:11.517Z,99.90
2022-08-14T05:58:02.257Z,99.90
2022-08-14T06:00:40.675Z,99.90
2022-08-14T06:03:11.404Z,99.90
2022-08-14T06:05:40.124Z,99.90
2022-08-14T06:08:35.692Z,99.90
2022-08-14T06:11:08.025Z,99.90
2022-08-14T06:13:45.134Z,99.90
2022-08-14T06:16:17.794Z,99.90
2022-08-14T06:18:48.661Z,99.90
2022-08-14T06:21:23.418Z,99.90
2022-08-14T06:23:51.481Z,99.90
2022-08-14T06:26:20.658Z,99.90
2022-08-14T06:28:52.183Z,99.90
2022-08-14T06:31:20.947Z,99.90
2022-08-14T06:35:02.340Z,99.90
2022-08-14T06:36:37.615Z,99.90
2022-08-14T06:39:04.562Z,99.90
2022-08-14T06:41:57.857Z,99.90
2022-08-14T06:44:30.940Z,99.90
2022-08-14T06:47:01.589Z,99.90
2022-08-14T06:49:30.300Z,99.90
2022-08-14T06:51:57.695Z,99.90
2022-08-14T06:54:31.662Z,99.90
2022-08-14T06:56:59.040Z,99.90
2022-08-14T06:59:26.449Z,99.90
2022-08-14T07:02:13.361Z,99.90
2022-08-14T07:04:59.399Z,99.90
2022-08-14T07:07:28.665Z,99.90
2022-08-14T07:09:55.742Z,99.90
2022-08-14T07:12:52.066Z,99.90
2022-08-14T07:15:10.906Z,99.50
2022-08-14T07:17:51.937Z,98.80
2022-08-14T07:20:30.265Z,98.40
2022-08-14T07:23:06.721Z,97.90
2022-08-14T07:25:39.870Z,97.00
2022-08-14T07:28:13.036Z,95.60
2022-08-14T07:30:50.636Z,95.40
2022-08-14T07:33:20.825Z,94.50
2022-08-14T07:35:57.923Z,94.10
2022-08-14T07:38:35.488Z,93.30
2022-08-14T07:41:10.770Z,92.00
2022-08-14T07:43:42.947Z,91.50
2022-08-14T07:46:11.178Z,91.60
2022-08-14T07:48:43.743Z,90.20
2022-08-14T07:51:11.490Z,90.00
2022-08-14T07:53:41.067Z,89.40
2022-08-14T07:56:44.262Z,88.50
2022-08-14T07:58:58.259Z,87.20
2022-08-14T08:01:29.973Z,85.10
2022-08-14T08:04:01.442Z,83.90
2022-08-14T08:06:30.761Z,82.10
2022-08-14T08:09:03.181Z,80.30
2022-08-14T08:11:37.291Z,79.70
2022-08-14T08:14:16.314Z,78.80
2022-08-14T08:16:47.221Z,77.20
2022-08-14T08:19:18.716Z,74.30
2022-08-14T08:21:46.285Z,72.80
2022-08-14T08:24:18.537Z,70.10
2022-08-14T08:26:47.198Z,69.30
2022-08-14T08:29:25.114Z,66.80
2022-08-14T08:31:56.590Z,65.00
2022-08-14T08:34:29.536Z,64.70
2022-08-14T08:36:58.503Z,63.90
2022-08-14T08:39:30.829Z,64.00
2022-08-14T08:42:12.081Z,63.30
2022-08-14T08:44:41.326Z,61.30
2022-08-14T08:47:10.209Z,60.90
2022-08-14T08:49:52.876Z,60.80
2022-08-14T08:52:31.821Z,60.20
2022-08-14T08:55:00.722Z,59.40
2022-08-14T08:57:35.736Z,59.50
2022-08-14T09:00:25.322Z,58.70
2022-08-14T09:03:10.011Z,58.70
2022-08-14T09:05:58.743Z,58.40
2022-08-14T09:08:31.691Z,57.70
2022-08-14T09:11:19.656Z,57.60
2022-08-14T09:13:54.202Z,57.40
2022-08-14T09:16:25.070Z,57.10
2022-08-14T09:18:53.381Z,57.40
2022-08-14T09:21:24.439Z,56.70
2022-08-14T09:24:28.705Z,56.20
2022-08-14T09:26:48.874Z,56.10
2022-08-14T09:29:18.134Z,55.90
2022-08-14T09:31:57.655Z,54.80
2022-08-14T09:35:08.711Z,54.20
2022-08-14T09:38:25.902Z,54.30
2022-08-14T09:42:20.509Z,54.50
2022-08-14T09:44:39.659Z,53.50
2022-08-14T09:47:10.567Z,52.40
2022-08-14T09:49:52.070Z,51.90
2022-08-14T09:52:33.935Z,51.50
2022-08-14T09:55:02.844Z,50.50
2022-08-14T09:57:31.791Z,51.30
2022-08-14T10:00:29.198Z,51.50
2022-08-14T10:03:03.541Z,51.90
2022-08-14T10:05:39.260Z,51.10
2022-08-14T10:08:25.588Z,50.20
2022-08-14T10:11:02.335Z,49.40
2022-08-14T10:13:42.906Z,48.60
2022-08-14T10:16:25.813Z,48.40
2022-08-14T10:19:12.818Z,47.40
2022-08-14T10:23:13.597Z,46.90
2022-08-14T10:24:50.932Z,46.50
2022-08-14T10:27:26.632Z,47.20
2022-08-14T10:30:00.598Z,48.20
2022-08-14T10:32:40.060Z,48.40
2022-08-14T10:35:17.083Z,49.10
2022-08-14T10:37:50.318Z,50.00
2022-08-14T10:40:38.491Z,50.40
2022-08-14T10:43:25.496Z,50.70
2022-08-14T10:46:21.495Z,50.30
2022-08-14T10:49:04.325Z,50.60
2022-08-14T10:51:36.072Z,49.90
2022-08-14T10:54:16.311Z,48.60
2022-08-14T10:57:11.334Z,47.00
2022-08-14T10:59:58.277Z,47.00
2022-08-14T11:02:54.245Z,47.80
2022-08-14T11:05:23.488Z,48.80
2022-08-14T11:08:00.124Z,48.70
2022-08-14T11:10:57.466Z,47.60
2022-08-14T11:13:30.231Z,45.60
2022-08-14T11:16:00.764Z,44.70
2022-08-14T11:18:32.370Z,43.90
2022-08-14T11:21:06.460Z,43.30
2022-08-14T11:23:41.185Z,43.60
2022-08-14T11:26:14.065Z,43.50
2022-08-14T11:28:48.464Z,42.30
2022-08-14T11:31:24.241Z,42.00
2022-08-14T11:33:59.554Z,42.50
2022-08-14T11:37:02.742Z,41.70
2022-08-14T11:39:33.308Z,41.50
2022-08-14T11:42:55.463Z,41.20
2022-08-14T11:44:53.770Z,41.60
2022-08-14T11:47:27.321Z,41.10
2022-08-14T11:50:33.636Z,41.40
2022-08-14T11:53:05.967Z,41.60
2022-08-14T11:55:38.444Z,43.00
2022-08-14T11:58:11.604Z,42.40
2022-08-14T12:00:54.946Z,42.40
2022-08-14T12:03:37.229Z,40.80
2022-08-14T12:06:28.589Z,40.10
2022-08-14T12:08:59.895Z,39.90
2022-08-14T12:11:43.212Z,39.40
2022-08-14T12:14:29.402Z,39.90
2022-08-14T12:17:11.946Z,40.20
2022-08-14T12:20:06.905Z,41.30
2022-08-14T12:22:44.279Z,40.40
2022-08-14T12:25:20.108Z,40.50
2022-08-14T12:27:53.428Z,41.00
2022-08-14T12:30:42.553Z,40.90
2022-08-14T12:33:30.475Z,41.40
2022-08-14T12:36:05.464Z,41.60
2022-08-14T12:38:44.192Z,41.80
2022-08-14T12:41:20.534Z,42.50
2022-08-14T12:44:01.787Z,41.10
2022-08-14T12:46:30.435Z,39.70
2022-08-14T12:49:02.385Z,38.40
2022-08-14T12:51:30.568Z,38.00
2022-08-14T12:53:59.346Z,37.50
2022-08-14T12:56:32.688Z,37.20
2022-08-14T12:59:02.663Z,37.40
2022-08-14T13:01:59.611Z,36.80
2022-08-14T13:04:21.491Z,36.10
2022-08-14T13:06:50.907Z,35.70
2022-08-14T13:09:19.743Z,36.00
2022-08-14T13:11:59.071Z,35.10
2022-08-14T13:14:47.379Z,34.80
2022-08-14T13:17:17.099Z,34.80
2022-08-14T13:19:45.615Z,34.60
2022-08-14T13:22:28.983Z,34.60
2022-08-14T13:25:05.243Z,34.00
2022-08-14T13:27:39.179Z,34.00
2022-08-14T13:30:10.783Z,34.00
2022-08-14T13:32:48.126Z,33.40
2022-08-14T13:35:19.194Z,34.30
2022-08-14T13:37:49.645Z,33.70
2022-08-14T13:40:21.303Z,33.40
2022-08-14T13:42:55.180Z,33.80
2022-08-14T13:45:33.860Z,34.30
2022-08-14T13:48:28.596Z,34.00
2022-08-14T13:51:01.881Z,33.50
2022-08-14T13:53:34.936Z,33.50
2022-08-14T13:56:06.480Z,34.00
2022-08-14T13:58:47.018Z,33.60
2022-08-14T14:01:18.282Z,33.20
2022-08-14T14:03:52.606Z,32.80
2022-08-14T14:06:25.167Z,33.40
2022-08-14T14:08:59.156Z,35.30
2022-08-14T14:11:30.101Z,36.20
2022-08-14T14:14:00.194Z,35.90
2022-08-14T14:16:30.610Z,35.70
2022-08-14T14:19:10.491Z,36.60
2022-08-14T14:21:40.898Z,36.20
2022-08-14T14:24:08.589Z,37.20
2022-08-14T14:26:54.398Z,37.90
2022-08-14T14:29:26.248Z,38.40
2022-08-14T14:31:54.015Z,39.20
2022-08-14T14:34:30.279Z,36.10
2022-08-14T14:37:04.322Z,32.30
2022-08-14T14:39:38.089Z,32.00
2022-08-14T14:42:26.218Z,32.80
2022-08-14T14:45:15.750Z,34.60
2022-08-14T14:47:59.423Z,34.80
2022-08-14T14:50:26.619Z,31.00
2022-08-14T14:53:12.726Z,28.70
2022-08-14T14:55:59.512Z,28.60
2022-08-14T14:58:30.578Z,27.60
2022-08-14T15:00:59.884Z,28.10
2022-08-14T15:03:26.798Z,30.00
2022-08-14T15:05:54.489Z,31.70
2022-08-14T15:08:26.669Z,32.90
2022-08-14T15:11:13.758Z,34.80
2022-08-14T15:13:43.315Z,36.30
2022-08-14T15:16:21.853Z,37.40
2022-08-14T15:18:51.716Z,37.70
2022-08-14T15:21:19.899Z,37.30
2022-08-14T15:23:50.451Z,37.10
2022-08-14T15:26:23.814Z,36.60
2022-08-14T15:29:03.088Z,36.10
2022-08-14T15:31:36.492Z,37.20
2022-08-14T15:34:44.704Z,37.90
2022-08-14T15:36:58.957Z,38.70
2022-08-14T15:39:29.533Z,39.20
2022-08-14T15:42:02.581Z,39.50
2022-08-14T15:44:34.366Z,39.90
2022-08-14T15:47:06.936Z,40.40
2022-08-14T15:49:34.739Z,40.00
2022-08-14T15:52:03.257Z,40.00
2022-08-14T15:54:31.682Z,40.00
2022-08-14T15:57:06.267Z,40.20
2022-08-14T15:59:55.815Z,40.80
2022-08-14T16:02:27.621Z,41.20
2022-08-14T16:04:55.806Z,41.50
2022-08-14T16:07:27.107Z,41.10
2022-08-14T16:10:18.585Z,40.80
2022-08-14T16:12:47.535Z,40.40
2022-08-14T16:15:16.733Z,39.70
2022-08-14T16:17:45.653Z,39.40
2022-08-14T16:20:42.513Z,40.10
2022-08-14T16:23:11.621Z,40.70
2022-08-14T16:25:43.099Z,41.00
2022-08-14T16:28:10.484Z,41.20
2022-08-14T16:30:54.761Z,41.70
2022-08-14T16:33:56.642Z,41.30
2022-08-14T16:36:30.187Z,41.20
2022-08-14T16:39:08.180Z,41.40
2022-08-14T16:41:39.549Z,40.90
2022-08-14T16:44:31.393Z,40.80
2022-08-14T16:47:04.166Z,40.60
2022-08-14T16:49:35.339Z,40.90
2022-08-14T16:52:43.606Z,40.90
2022-08-14T16:55:08.750Z,41.00
2022-08-14T16:57:52.711Z,41.20
2022-08-14T17:00:43.708Z,41.10
2022-08-14T17:03:13.220Z,41.10
2022-08-14T17:05:46.631Z,40.10
2022-08-14T17:08:31.605Z,40.40
2022-08-14T17:11:10.294Z,40.70
2022-08-14T17:13:58.371Z,41.00
2022-08-14T17:16:37.307Z,41.00
2022-08-14T17:19:09.979Z,41.20
2022-08-14T17:21:47.065Z,41.10
2022-08-14T17:24:57.803Z,41.50
2022-08-14T17:27:05.676Z,42.00
2022-08-14T17:29:54.665Z,42.30
2022-08-14T17:32:55.562Z,42.40
2022-08-14T17:35:57.947Z,42.90
2022-08-14T17:38:39.265Z,43.40
2022-08-14T17:41:23.693Z,43.60
2022-08-14T17:46:43.434Z,43.80
2022-08-14T17:49:17.560Z,44.10
2022-08-14T17:52:09.006Z,44.40
2022-08-14T17:54:58.801Z,44.90
2022-08-14T17:57:35.263Z,45.20
2022-08-14T18:00:03.129Z,45.70
2022-08-14T18:02:30.865Z,45.90
2022-08-14T18:05:02.870Z,46.30
2022-08-14T18:08:00.407Z,46.70
2022-08-14T18:10:51.812Z,47.20
2022-08-14T18:13:10.798Z,47.70
2022-08-14T18:15:41.458Z,48.20
2022-08-14T18:18:11.257Z,48.70
2022-08-14T18:21:39.832Z,48.90
2022-08-14T18:23:28.627Z,49.30
2022-08-14T18:25:58.745Z,49.70
2022-08-14T18:28:47.857Z,50.10
2022-08-14T18:31:21.177Z,50.70
2022-08-14T18:33:58.342Z,51.10
2022-08-14T18:36:48.633Z,51.50
2022-08-14T18:40:02.467Z,51.90
2022-08-14T18:42:34.833Z,52.20
2022-08-14T18:45:02.322Z,52.60
2022-08-14T18:48:14.428Z,52.90
2022-08-14T18:50:31.165Z,53.40
2022-08-14T18:53:11.027Z,53.90
2022-08-14T18:55:52.902Z,54.20
2022-08-14T18:58:29.640Z,54.50
2022-08-14T19:01:00.263Z,54.80
2022-08-14T19:03:38.925Z,55.20
2022-08-14T19:06:10.421Z,55.40
2022-08-14T19:08:39.614Z,55.90
2022-08-14T19:11:37.475Z,56.30
2022-08-14T19:14:07.265Z,56.70
2022-08-14T19:16:43.055Z,57.00
2022-08-14T19:19:15.371Z,57.30
2022-08-14T19:21:56.523Z,57.80
2022-08-14T19:24:44.147Z,58.10
2022-08-14T19:27:24.825Z,58.40
2022-08-14T19:30:29.135Z,58.70
2022-08-14T19:33:03.613Z,58.70
2022-08-14T19:35:55.100Z,59.00
2022-08-14T19:38:44.910Z,60.00
2022-08-14T19:41:22.275Z,61.30
2022-08-14T19:43:50.736Z,62.10
2022-08-14T19:46:37.974Z,62.60
2022-08-14T19:49:07.180Z,63.00
2022-08-14T19:51:48.830Z,63.50
2022-08-14T19:54:15.951Z,63.80
2022-08-14T19:56:45.936Z,63.90
2022-08-14T19:59:21.379Z,63.80
2022-08-14T20:01:53.534Z,63.60
2022-08-14T20:04:46.865Z,63.70
2022-08-14T20:09:05.047Z,64.30
2022-08-14T20:11:07.844Z,65.00
2022-08-14T20:13:32.971Z,65.20
2022-08-14T20:16:12.520Z,65.30
2022-08-14T20:18:49.963Z,65.40
2022-08-14T20:21:19.854Z,65.50
2022-08-14T20:23:48.186Z,65.80
2022-08-14T20:26:30.671Z,66.60
2022-08-14T20:29:05.097Z,67.10
2022-08-14T20:31:37.278Z,67.40
2022-08-14T20:34:19.211Z,67.70
2022-08-14T20:37:22.016Z,67.80
2022-08-14T20:39:53.684Z,67.70
2022-08-14T20:42:43.858Z,67.60
2022-08-14T20:45:23.706Z,67.60
2022-08-14T20:48:01.000Z,67.40
2022-08-14T20:50:30.176Z,67.30
2022-08-14T20:53:00.262Z,67.70
2022-08-14T20:55:37.183Z,68.00
2022-08-14T20:58:10.046Z,68.60
2022-08-14T21:01:32.485Z,69.40
2022-08-14T21:04:02.228Z,69.90
2022-08-14T21:07:22.678Z,70.40
2022-08-14T21:10:05.712Z,70.80
2022-08-14T21:12:34.220Z,71.20
2022-08-14T21:15:01.886Z,71.40
2022-08-14T21:17:30.016Z,71.90
2022-08-14T21:19:57.230Z,72.30
2022-08-14T21:22:26.725Z,72.50
2022-08-14T21:25:01.673Z,72.50
2022-08-14T21:27:46.891Z,72.30
2022-08-14T21:30:21.021Z,72.40
2022-08-14T21:32:50.680Z,72.40
2022-08-14T21:35:25.919Z,72.50
2022-08-14T21:37:53.606Z,72.20
2022-08-14T21:40:40.037Z,72.00
2022-08-14T21:43:18.202Z,72.10
2022-08-14T21:45:53.534Z,72.60
2022-08-14T21:48:29.266Z,72.80
2022-08-14T21:51:54.214Z,72.80
2022-08-14T21:53:54.115Z,72.60
2022-08-14T21:56:37.575Z,72.20
2022-08-14T21:59:18.357Z,72.00
2022-08-14T22:01:59.384Z,71.70
2022-08-14T22:04:39.940Z,71.40
2022-08-14T22:07:13.244Z,71.20
2022-08-14T22:09:45.689Z,71.40
2022-08-14T22:12:47.385Z,71.60
2022-08-14T22:15:14.759Z,71.70
2022-08-14T22:17:51.009Z,71.70
2022-08-14T22:20:20.389Z,71.50
2022-08-14T22:22:47.821Z,71.60
2022-08-14T22:25:17.496Z,72.00
2022-08-14T22:27:55.769Z,72.10
2022-08-14T22:30:24.098Z,72.20
2022-08-14T22:32:57.287Z,72.90
2022-08-14T22:35:26.117Z,73.30
2022-08-14T22:38:34.694Z,73.70
2022-08-14T22:41:12.551Z,74.10
2022-08-14T22:43:33.542Z,74.30
2022-08-14T22:46:14.485Z,74.90
2022-08-14T22:48:45.054Z,75.40
2022-08-14T22:51:17.980Z,76.00
2022-08-14T22:53:48.323Z,76.30
2022-08-14T22:56:21.108Z,76.70
2022-08-14T22:58:54.034Z,77.00
2022-08-14T23:01:56.676Z,77.20
2022-08-14T23:04:34.829Z,77.70
2022-08-14T23:07:22.891Z,78.00
2022-08-14T23:10:33.134Z,78.50
2022-08-14T23:12:54.554Z,78.70
2022-08-14T23:15:28.733Z,79.30
2022-08-14T23:17:57.361Z,80.00
2022-08-14T23:20:29.312Z,80.40
2022-08-14T23:22:58.074Z,80.80
2022-08-14T23:25:56.881Z,81.40
2022-08-14T23:28:33.459Z,82.00
2022-08-14T23:31:14.041Z,82.40
2022-08-14T23:33:46.118Z,82.80
2022-08-14T23:36:32.833Z,83.70
2022-08-14T23:39:12.204Z,84.10
2022-08-14T23:41:46.188Z,84.70
2022-08-14T23:44:23.511Z,85.10
2022-08-14T23:46:56.878Z,85.60
2022-08-14T23:49:28.598Z,86.20
2022-08-14T23:52:50.374Z,86.50
2022-08-14T23:55:06.227Z,86.90
2022-08-14T23:57:57.953Z,87.50
